Latest Coastal Weather Observations for Ulladulla

IDN60701

Issued at 7:11 pm EST Wednesday 25 May 2016 (issued every 10 minutes, with the page automatically refreshed every 10 minutes)

About coastal observations | Map of coastal stations | Coastal observations for NSW | Marine services | Other Formats
Station Details ID: 069138 Name: ULLADULLA AWS Lat: -35.36 Lon: 150.48 Height: 35.7 m
Data from the previous 72 hours. | See also: Recent months at Ulladulla
Date/Time
EST
Temp

°C
Wind Pressure Rain
since 9am
mm
Weather Cloud Vis
km
Sea
Height
m
Swell
Dir
 
Speed
knots
Gust
knots
hPa Trend Height
m
Period
s
Dir
25/07:00pm 14.1 NNW 2 3 1012.6 - 0.0 - - - - - - -
25/06:30pm 14.4 NNW 3 6 1012.7 - 0.0 - - - - - - -
25/06:00pm 14.8 NNW 2 4 1012.5 - 0.0 - - - - - - -
25/05:30pm 14.9 NNW 2 3 1012.5 - 0.0 - - - - - - -
25/05:00pm 16.0 NNW 5 8 1012.2 - 0.0 - - - - - - -
25/04:30pm 16.9 N 5 11 1012.0 - 0.0 - - - - - - -
25/04:00pm 16.8 NNE 3 7 1012.2 - 0.0 - - - - - - -
25/03:30pm 16.4 NNE 5 9 1012.4 - 0.0 - - - - - - -
25/03:00pm 17.0 NNE 7 11 1012.4 - 0.0 - - - - - - -
25/02:30pm 17.4 NE 5 9 1012.4 - 0.0 - - - - - - -
25/02:00pm 17.3 NE 5 7 1012.9 - 0.0 - - - - - - -
25/01:30pm 17.6 NE 4 7 1013.1 - 0.0 - - - - - - -
25/01:00pm 17.1 NE 4 6 1013.5 - 0.0 - - - - - - -
25/12:30pm 16.7 NNE 4 6 1014.2 - 0.0 - - - - - - -
25/12:00pm 16.8 NNE 4 5 1014.7 - 0.0 - - - - - - -
25/11:30am 16.4 N 5 7 1015.2 - 0.0 - - - - - - -
25/11:00am 17.8 W 3 7 1015.9 - 0.0 - - - - - - -
25/10:30am 16.5 NW 3 6 1016.3 - 0.0 - - - - - - -
25/10:00am 15.9 WNW 3 6 1016.8 - 0.0 - - - - - - -
25/09:30am 15.5 WNW 4 7 1017.1 - 0.0 - - - - - - -
25/09:00am 14.0 WNW 3 6 1017.4 - 0.0 - - - - - - -
25/08:30am 13.7 WNW 4 7 1017.3 - 0.0 - - - - - - -
25/08:00am 12.6 W 4 7 1017.0 - 0.0 - - - - - - -
25/07:30am 11.7 W 4 7 1016.9 - 0.0 - - - - - - -
25/07:00am 10.5 W 4 7 1016.7 - 0.0 - - - - - - -
25/06:30am 10.5 W 4 7 1016.2 - 0.0 - - - - - - -
25/06:00am 10.5 W 5 8 1016.2 - 0.0 - - - - - - -
25/05:30am 9.8 W 4 7 1015.8 - 0.0 - - - - - - -
25/05:00am 9.0 WSW 1 4 1015.8 - 0.0 - - - - - - -
25/04:30am 9.9 W 1 4 1015.6 - 0.0 - - - - - - -
25/04:00am 10.8 W 4 6 1015.5 - 0.0 - - - - - - -
25/03:30am 11.2 WNW 4 8 1015.8 - 0.0 - - - - - - -
25/03:00am 11.1 WNW 3 7 1015.9 - 0.0 - - - - - - -
25/02:30am 11.5 WNW 5 7 1016.0 - 0.0 - - - - - - -
25/02:00am 11.9 WNW 5 9 1016.1 - 0.0 - - - - - - -
25/01:30am 11.9 WNW 5 10 1016.1 - 0.0 - - - - - - -
25/01:00am 12.1 WNW 4 8 1016.5 - 0.0 - - - - - - -
25/12:30am 12.4 WNW 6 9 1016.7 - 0.0 - - - - - - -
25/12:00am 12.3 W 5 9 1016.8 - 0.0 - - - - - - -
 
Date/Time
EST
Temp

°C
Wind Pressure Rain
since 9am
mm
Weather Cloud Vis
km
Sea
Height
m
Swell
Dir
 
Speed
knots
Gust
knots
hPa Trend Height
m
Period
s
Dir
24/11:30pm 12.2 W 5 9 1016.9 - 0.0 - - - - - - -
24/11:00pm 12.3 WSW 3 6 1016.8 - 0.0 - - - - - - -
24/10:30pm 12.8 WNW 4 7 1016.5 - 0.0 - - - - - - -
24/10:00pm 13.2 WNW 6 10 1016.3 - 0.0 - - - - - - -
24/09:30pm 13.3 W 6 10 1016.3 - 0.0 - - - - - - -
24/09:00pm 13.8 WNW 6 11 1016.3 - 0.0 - - - - - - -
24/08:30pm 13.9 WNW 7 11 1016.2 - 0.0 - - - - - - -
24/08:00pm 14.0 WNW 5 9 1016.2 - 0.0 - - - - - - -
24/07:30pm 14.2 WNW 5 8 1016.1 - 0.0 - - - - - - -
24/07:00pm 14.5 NW 4 6 1015.8 - 0.0 - - - - - - -
24/06:30pm 15.1 WNW 3 6 1015.2 - 0.0 - - - - - - -
24/06:00pm 16.7 SSE 4 8 1015.0 - 0.0 - - - - - - -
24/05:30pm 14.3 S 3 6 1014.4 - 0.0 - - - - - - -
24/05:00pm 15.3 WSW 1 3 1014.0 - 0.0 - - - - - - -
24/04:30pm 17.4 W 4 8 1013.9 - 0.0 - - - - - - -
24/04:00pm 18.5 W 2 3 1013.7 - 0.0 - - - - - - -
24/03:30pm 19.3 W 5 10 1013.4 - 0.0 - - - - - - -
24/03:00pm 19.6 W 6 13 1013.2 - 0.0 - - - - - - -
24/02:30pm 19.6 WNW 6 11 1013.1 - 0.0 - - - - - - -
24/02:00pm 20.1 W 5 12 1013.0 - 0.0 - - - - - - -
24/01:30pm 19.6 WNW 6 12 1013.1 - 0.0 - - - - - - -
24/01:00pm 19.4 WNW 5 12 1013.4 - 0.0 - - - - - - -
24/12:30pm 19.0 W 1 5 1014.1 - 0.0 - - - - - - -
24/12:00pm 18.1 WSW 3 5 1014.7 - 0.0 - - - - - - -
24/11:30am 17.5 WNW 4 7 1015.2 - 0.0 - - - - - - -
24/11:00am 18.0 W 6 11 1015.8 - 0.0 - - - - - - -
24/10:30am - WNW 7 13 1016.1 - 0.0 - - - - - - -
24/10:00am 16.4 WNW 7 13 1016.3 - 0.0 - - - - - - -
24/09:30am 15.9 WNW 6 10 1016.5 - 0.0 - - - - - - -
24/09:00am 15.1 WNW 7 12 1016.8 - 0.0 - - - - - - -
24/08:30am 14.2 WNW 6 13 1016.8 - 0.0 - - - - - - -
24/08:00am 13.5 WNW 7 14 1016.7 - 0.0 - - - - - - -
24/07:30am 12.5 WNW 7 11 1016.4 - 0.0 - - - - - - -
24/07:00am 11.3 WNW 6 9 1016.2 - 0.0 - - - - - - -
24/06:30am 11.2 WNW 6 9 1016.0 - 0.0 - - - - - - -
24/06:00am 10.9 NW 5 9 1015.8 - 0.0 - - - - - - -
24/05:30am 11.3 NW 6 9 1015.8 - 0.0 - - - - - - -
24/05:00am 11.3 NW 7 9 1015.9 - 0.0 - - - - - - -
24/04:30am 11.1 NW 5 8 1016.0 - 0.0 - - - - - - -
24/04:00am 11.1 NW 5 7 1016.0 - 0.0 - - - - - - -
24/03:30am 11.4 NW 6 8 1016.3 - 0.0 - - - - - - -
24/03:00am 11.2 NW 5 8 1016.5 - 0.0 - - - - - - -
24/02:30am 11.1 NW 6 8 1016.6 - 0.0 - - - - - - -
24/02:00am 11.3 NW 6 9 1016.5 - 0.0 - - - - - - -
24/01:30am 12.3 NW 6 9 1016.5 - 0.0 - - - - - - -
24/01:00am 12.5 NW 7 10 1016.5 - 0.0 - - - - - - -
24/12:30am 13.0 WNW 7 12 1016.7 - 0.0 - - - - - - -
24/12:00am 13.2 WNW 7 11 1016.5 - 0.0 - - - - - - -
 
Date/Time
EST
Temp

°C
Wind Pressure Rain
since 9am
mm
Weather Cloud Vis
km
Sea
Height
m
Swell
Dir
 
Speed
knots
Gust
knots
hPa Trend Height
m
Period
s
Dir
23/11:30pm 13.7 WNW 7 11 1016.4 - 0.0 - - - - - - -
23/11:00pm 13.8 WNW 8 13 1016.2 - 0.0 - - - - - - -
23/10:30pm 13.7 WNW 7 13 1016.1 - 0.0 - - - - - - -
23/10:00pm 13.6 WNW 6 9 1015.9 - 0.0 - - - - - - -
23/09:30pm 13.6 NW 4 8 1016.0 - 0.0 - - - - - - -
23/09:00pm 14.1 WNW 5 9 1015.9 - 0.0 - - - - - - -
23/08:30pm 15.0 WNW 7 13 1016.2 - 0.0 - - - - - - -
23/08:00pm 15.2 WNW 7 16 1015.5 - 0.0 - - - - - - -
23/07:30pm 15.6 WNW 8 16 1015.2 - 0.0 - - - - - - -
23/07:00pm 16.3 WNW 8 17 1014.9 - 0.0 - - - - - - -
23/06:30pm 16.8 WNW 8 14 1014.5 - 0.0 - - - - - - -
23/06:00pm 17.2 WNW 8 15 1014.1 - 0.0 - - - - - - -
23/05:30pm 17.5 WNW 6 12 1013.5 - 0.0 - - - - - - -
23/05:00pm 17.6 WSW 3 6 1013.1 - 0.0 - - - - - - -
23/04:30pm 19.2 SW 6 10 1012.8 - 0.0 - - - - - - -
23/04:00pm 20.5 WSW 9 16 1012.3 - 0.0 - - - - - - -
23/03:30pm 21.1 WSW 7 15 1011.8 - 0.0 - - - - - - -
23/03:00pm 21.9 W 7 13 1011.4 - 0.0 - - - - - - -
23/02:30pm 22.3 W 11 19 1010.8 - 0.0 - - - - - - -
23/02:00pm 22.9 W 10 22 1010.5 - 0.0 - - - - - - -
23/01:30pm 23.3 WNW 12 25 1009.8 - 0.0 - - - - - - -
23/01:01pm 23.8 W 14 30 1010.5 - 0.0 - - - - - - -
23/01:00pm 23.8 W 13 24 1010.5 - 0.0 - - - - - - -
23/12:30pm 24.1 W 12 27 1010.4 - 0.0 - - - - - - -
23/12:00pm 23.6 NW 3 7 1010.6 - 0.0 - - - - - - -
23/11:30am 22.6 NW 7 11 1011.2 - 0.0 - - - - - - -
23/11:00am 22.5 WNW 9 15 1011.9 - 0.0 - - - - - - -
23/10:30am 21.5 WNW 6 14 1012.4 - 0.0 - - - - - - -
23/10:00am 21.7 NNW 7 11 1011.7 - 0.0 - - - - - - -
23/09:30am 21.9 NW 11 18 1011.4 - 0.0 - - - - - - -
23/09:00am 21.6 NW 13 23 1010.4 - 0.0 - - - - - - -
23/08:30am 21.0 WNW 3 9 1011.0 - 0.0 - - - - - - -
23/08:00am 20.5 NW 5 12 1011.5 - 0.0 - - - - - - -
23/07:30am 20.0 N 3 6 1011.6 - 0.0 - - - - - - -
23/07:00am 19.9 N 6 8 1011.6 - 0.0 - - - - - - -
23/06:30am 19.1 NNW 6 9 1012.0 - 0.0 - - - - - - -
23/06:00am 18.6 NNW 6 10 1012.0 - 0.0 - - - - - - -
23/05:30am 18.7 N 7 12 1012.1 - 0.0 - - - - - - -
23/05:00am 18.2 N 5 9 1012.6 - 0.0 - - - - - - -
23/04:30am 17.5 N 4 7 1012.9 - 0.0 - - - - - - -
23/04:00am 18.6 N 7 10 1013.1 - 0.0 - - - - - - -
23/03:30am 18.4 NNW 3 7 1013.4 - 0.0 - - - - - - -
23/03:00am 18.6 N 5 8 1014.1 - 0.0 - - - - - - -
23/02:30am 18.2 NNW 4 7 1014.7 - 0.0 - - - - - - -
23/02:00am 17.6 N 3 4 1015.1 - 0.0 - - - - - - -
23/01:30am 17.9 NNE 4 5 1015.3 - 0.0 - - - - - - -
23/01:00am 16.8 N 3 4 1015.7 - 0.0 - - - - - - -
23/12:30am 17.0 N 3 5 1015.9 - 0.0 - - - - - - -
23/12:00am 17.7 N 2 4 1016.2 - 0.0 - - - - - - -
 
Date/Time
EST
Temp

°C
Wind Pressure Rain
since 9am
mm
Weather Cloud Vis
km
Sea
Height
m
Swell
Dir
 
Speed
knots
Gust
knots
hPa Trend Height
m
Period
s
Dir
22/11:30pm 18.4 NNW 5 8 1016.3 - 0.0 - - - - - - -
22/11:00pm 17.1 N 4 6 1016.4 - 0.0 - - - - - - -
22/10:30pm 16.1 N 3 5 1016.8 - 0.0 - - - - - - -
22/10:00pm 15.4 N 3 4 1017.2 - 0.0 - - - - - - -
22/09:30pm 16.4 N 4 5 1017.4 - 0.0 - - - - - - -
22/09:00pm 16.7 N 4 5 1017.7 - 0.0 - - - - - - -
22/08:30pm 17.1 N 4 5 1017.8 - 0.0 - - - - - - -
22/08:00pm 18.0 N 4 6 1017.9 - 0.0 - - - - - - -
22/07:30pm 18.1 N 4 7 1018.1 - 0.0 - - - - - - -

Other Formats:

Comma delimited format used in spreadsheet applications
http://www.bom.gov.au/fwo/IDN60701/IDN60701.94938.axf

JavaScript Object Notation format (JSON) in row-major order
http://www.bom.gov.au/fwo/IDN60701/IDN60701.94938.json